createdAt,value
2022-12-10T00:04:07.104Z,-11382.94
2022-12-10T00:09:14.566Z,-11382.94
2022-12-10T00:14:18.996Z,-11382.94
2022-12-10T00:19:23.806Z,-11382.94
2022-12-10T00:24:27.472Z,-11382.94
2022-12-10T00:29:30.975Z,-11382.94
2022-12-10T00:34:35.851Z,-11382.94
2022-12-10T00:39:40.504Z,-11382.94
2022-12-10T00:44:44.070Z,-11382.94
2022-12-10T00:49:48.919Z,-11382.94
2022-12-10T00:54:52.501Z,-11382.94
2022-12-10T00:59:56.024Z,-11382.94
2022-12-10T01:05:01.039Z,-11382.94
2022-12-10T01:10:05.933Z,72920.38
2022-12-10T01:15:10.309Z,72920.38
2022-12-10T01:20:15.338Z,75634.22
2022-12-10T01:25:18.999Z,75634.22
2022-12-10T01:30:22.477Z,75634.22
2022-12-10T01:35:27.313Z,75634.22
2022-12-10T01:40:31.475Z,75634.22
2022-12-10T01:45:35.157Z,75634.22
2022-12-10T01:50:40.156Z,75634.22
2022-12-10T01:55:50.396Z,75634.22
2022-12-10T02:01:09.415Z,75634.22
2022-12-10T02:06:35.694Z,75634.22
2022-12-10T02:11:45.848Z,75634.22
2022-12-10T02:16:59.332Z,75634.22
2022-12-10T02:22:07.172Z,75634.22
2022-12-10T02:27:18.156Z,75634.22
2022-12-10T02:32:27.862Z,75634.22
2022-12-10T02:37:41.162Z,75634.22
2022-12-10T02:42:49.340Z,75634.22
2022-12-10T02:47:59.255Z,75634.22
2022-12-10T02:53:09.479Z,75634.22
2022-12-10T02:58:22.715Z,75634.22
2022-12-10T03:03:36.302Z,75634.22
2022-12-10T03:08:46.610Z,75634.22
2022-12-10T03:13:56.766Z,75634.22
2022-12-10T03:19:06.487Z,75634.22
2022-12-10T03:24:11.138Z,75634.22
2022-12-10T03:29:19.968Z,75634.22
2022-12-10T03:34:25.330Z,75634.22
2022-12-10T03:39:29.454Z,75634.22
2022-12-10T03:44:34.731Z,75634.22
2022-12-10T03:49:39.629Z,75634.22
2022-12-10T03:54:43.229Z,75634.22
2022-12-10T03:59:46.781Z,75634.22
2022-12-10T04:04:52.279Z,75634.22
2022-12-10T04:09:55.787Z,75634.22
2022-12-10T04:15:16.909Z,75634.22
2022-12-10T04:20:39.038Z,75634.22
2022-12-10T04:26:00.050Z,75634.22
2022-12-10T04:31:03.526Z,75634.22
2022-12-10T04:36:09.285Z,75634.22
2022-12-10T04:41:16.469Z,77427.91
2022-12-10T04:46:20.111Z,77783.44
2022-12-10T04:51:25.037Z,78287.88
2022-12-10T04:56:29.128Z,78666.22
2022-12-10T05:01:33.023Z,78932.94
2022-12-10T05:06:38.428Z,79367.19
2022-12-10T05:11:43.894Z,79772.53
2022-12-10T05:16:47.946Z,80244.09
2022-12-10T05:22:10.354Z,80366.13
2022-12-10T05:27:13.876Z,81079.81
2022-12-10T05:32:17.349Z,81290.84
2022-12-10T05:37:22.303Z,81464.63
2022-12-10T05:42:25.911Z,81733.63
2022-12-10T05:47:29.375Z,81897.09
2022-12-10T05:52:34.500Z,82267.50
2022-12-10T05:57:38.364Z,82495.16
2022-12-10T06:02:41.894Z,82801.47
2022-12-10T06:07:47.014Z,83196.78
2022-12-10T06:12:50.544Z,83594.25
2022-12-10T06:17:53.991Z,83666.69
2022-12-10T06:22:58.837Z,83910.97
2022-12-10T06:28:02.427Z,83865.44
2022-12-10T06:33:05.929Z,84037.28
2022-12-10T06:38:10.835Z,84167.69
2022-12-10T06:43:14.543Z,84279.50
2022-12-10T06:48:18.038Z,84457.56
2022-12-10T06:53:23.071Z,84441.00
2022-12-10T06:58:26.602Z,84888.28
2022-12-10T07:03:30.093Z,84983.53
2022-12-10T07:08:35.784Z,85004.25
2022-12-10T07:13:39.976Z,85364.59
2022-12-10T07:18:48.725Z,85640.03
2022-12-10T07:23:59.327Z,85673.19
2022-12-10T07:29:05.249Z,85878.22
2022-12-10T07:34:08.941Z,85528.19
2022-12-10T07:39:18.343Z,85621.41
2022-12-10T07:44:23.066Z,85782.97
2022-12-10T07:49:26.877Z,85849.25
2022-12-10T07:54:31.801Z,86064.66
2022-12-10T07:59:35.708Z,86232.44
2022-12-10T08:04:39.748Z,86501.75
2022-12-10T08:09:45.015Z,86812.50
2022-12-10T08:14:48.558Z,86793.84
2022-12-10T08:19:52.767Z,87013.47
2022-12-10T08:24:57.816Z,87175.09
2022-12-10T08:30:01.694Z,87581.22
2022-12-10T08:35:05.904Z,87887.91
2022-12-10T08:40:12.246Z,88157.31
2022-12-10T08:45:16.351Z,88053.69
2022-12-10T08:50:20.154Z,88126.22
2022-12-10T08:55:25.346Z,88389.44
2022-12-10T09:00:29.267Z,88725.22
2022-12-10T09:05:36.381Z,88285.81
2022-12-10T09:10:42.417Z,88663.03
2022-12-10T09:15:52.061Z,88756.31
2022-12-10T09:20:55.757Z,88764.59
2022-12-10T09:26:01.033Z,88965.66
2022-12-10T09:31:10.959Z,89032.00
2022-12-10T09:36:18.112Z,88992.59
2022-12-10T09:41:39.596Z,89231.00
2022-12-10T09:46:53.105Z,89318.06
2022-12-10T09:51:59.928Z,89490.13
2022-12-10T09:57:07.648Z,89444.53
2022-12-10T10:02:23.153Z,89552.34
2022-12-10T10:07:33.243Z,89645.63
2022-12-10T10:12:42.674Z,89852.94
2022-12-10T10:17:48.260Z,90143.22
2022-12-10T10:22:52.461Z,90116.28
2022-12-10T10:27:58.128Z,90180.56
2022-12-10T10:33:10.126Z,90404.50
2022-12-10T10:38:20.735Z,90151.53
2022-12-10T10:43:29.837Z,90265.56
2022-12-10T10:48:33.524Z,90431.47
2022-12-10T10:53:45.090Z,90419.03
2022-12-10T10:59:00.816Z,90416.94
2022-12-10T11:04:04.556Z,90655.41
2022-12-10T11:09:08.478Z,90568.31
2022-12-10T11:14:18.258Z,90396.22
2022-12-10T11:19:23.611Z,90709.34
2022-12-10T11:24:28.369Z,90599.44
2022-12-10T11:29:51.210Z,90638.81
2022-12-10T11:35:07.485Z,90705.19
2022-12-10T11:40:27.957Z,90819.25
2022-12-10T11:45:47.732Z,90771.56
2022-12-10T11:50:54.457Z,90883.53
2022-12-10T11:56:08.509Z,90910.50
2022-12-10T12:01:21.121Z,91155.22
2022-12-10T12:06:54.616Z,91263.06
2022-12-10T12:12:13.372Z,91308.72
2022-12-10T12:17:23.837Z,91151.06
2022-12-10T12:22:32.180Z,91331.53
2022-12-10T12:27:39.932Z,91373.00
2022-12-10T12:32:54.123Z,91435.22
2022-12-10T12:38:03.109Z,91348.13
2022-12-10T12:43:11.457Z,91368.84
2022-12-10T12:48:25.793Z,91356.41
2022-12-10T12:53:34.980Z,91327.38
2022-12-10T12:58:44.781Z,91246.47
2022-12-10T13:03:52.133Z,91126.19
2022-12-10T13:09:00.905Z,91045.31
2022-12-10T13:14:19.139Z,90985.16
2022-12-10T13:19:33.870Z,91352.25
2022-12-10T13:25:09.323Z,91366.78
2022-12-10T13:30:36.757Z,91441.44
2022-12-10T13:35:52.811Z,91565.91
2022-12-10T13:41:23.896Z,91215.38
2022-12-10T13:46:33.125Z,91221.59
2022-12-10T13:51:56.601Z,91169.75
2022-12-10T13:57:09.936Z,91144.84
2022-12-10T14:02:44.242Z,91422.78
2022-12-10T14:07:52.459Z,91474.63
2022-12-10T14:12:56.931Z,91495.38
2022-12-10T14:18:04.019Z,91601.16
2022-12-10T14:23:42.525Z,91429.00
2022-12-10T14:28:50.331Z,91557.59
2022-12-10T14:33:57.768Z,91501.59
2022-12-10T14:39:04.085Z,91586.66
2022-12-10T14:44:08.498Z,91470.50
2022-12-10T14:49:18.882Z,91854.22
2022-12-10T14:54:32.796Z,91590.78
2022-12-10T14:59:41.337Z,91690.34
2022-12-10T15:04:48.531Z,91704.88
2022-12-10T15:09:55.615Z,91711.09
2022-12-10T15:15:04.956Z,91748.44
2022-12-10T15:20:25.724Z,91690.34
2022-12-10T15:25:31.315Z,91798.22
2022-12-10T15:30:39.950Z,91877.06
2022-12-10T15:35:43.522Z,91989.06
2022-12-10T15:40:48.542Z,91800.31
2022-12-10T15:45:53.351Z,92045.06
2022-12-10T15:50:57.307Z,91974.53
2022-12-10T15:56:02.257Z,91877.06
2022-12-10T16:01:06.111Z,92084.50
2022-12-10T16:06:10.220Z,91945.50
2022-12-10T16:11:20.544Z,92211.03
2022-12-10T16:16:24.345Z,92152.94
2022-12-10T16:21:28.186Z,92291.94
2022-12-10T16:26:34.987Z,92296.09
2022-12-10T16:31:38.672Z,92254.59
2022-12-10T16:36:42.253Z,92138.44
2022-12-10T16:41:53.866Z,92335.50
2022-12-10T16:46:57.499Z,92387.38
2022-12-10T16:52:01.594Z,92416.44
2022-12-10T16:57:12.234Z,92594.84
2022-12-10T17:02:18.081Z,92252.53
2022-12-10T17:07:22.331Z,92159.19
2022-12-10T17:12:30.666Z,92155.03
2022-12-10T17:17:34.389Z,92086.56
2022-12-10T17:22:38.280Z,92433.03
2022-12-10T17:27:43.435Z,92350.03
2022-12-10T17:32:46.993Z,92254.59
2022-12-10T17:37:54.160Z,92155.03
2022-12-10T17:42:59.516Z,92101.09
2022-12-10T17:48:03.121Z,91889.50
2022-12-10T17:53:10.689Z,92179.91
2022-12-10T17:58:15.802Z,92316.84
2022-12-10T18:03:19.676Z,92117.69
2022-12-10T18:08:24.803Z,92379.09
2022-12-10T18:13:29.885Z,92287.81
2022-12-10T18:18:33.491Z,92262.91
2022-12-10T18:23:37.264Z,92605.22
2022-12-10T18:28:48.072Z,92451.69
2022-12-10T18:33:53.340Z,92623.91
2022-12-10T18:38:59.538Z,92264.97
2022-12-10T18:44:04.587Z,92665.41
2022-12-10T18:49:08.870Z,92528.47
2022-12-10T18:54:13.097Z,92509.78
2022-12-10T18:59:19.560Z,92700.66
2022-12-10T19:04:23.351Z,92538.84
2022-12-10T19:09:32.325Z,92655.03
2022-12-10T19:14:38.015Z,92611.44
2022-12-10T19:19:41.809Z,92563.72
2022-12-10T19:24:45.380Z,92673.69
2022-12-10T19:29:50.451Z,92713.13
2022-12-10T19:34:54.246Z,92536.75
2022-12-10T19:39:57.953Z,92466.22
2022-12-10T19:45:02.975Z,92208.97
2022-12-10T19:50:07.427Z,92136.34
2022-12-10T19:55:11.282Z,92128.06
2022-12-10T20:00:20.565Z,92262.91
2022-12-10T20:05:24.287Z,92337.59
2022-12-10T20:10:30.096Z,92271.19
2022-12-10T20:15:35.334Z,92393.59
2022-12-10T20:20:39.135Z,92447.53
2022-12-10T20:25:45.565Z,92387.38
2022-12-10T20:30:50.728Z,92287.81
2022-12-10T20:35:54.454Z,92584.47
2022-12-10T20:40:58.549Z,92702.75
2022-12-10T20:46:04.078Z,92773.28
2022-12-10T20:51:07.860Z,92682.00
2022-12-10T20:56:13.755Z,92706.88
2022-12-10T21:01:19.913Z,92773.28
2022-12-10T21:06:26.832Z,92974.56
2022-12-10T21:11:30.466Z,92916.44
2022-12-10T21:16:35.629Z,93059.63
2022-12-10T21:21:39.496Z,93040.94
2022-12-10T21:26:43.347Z,92914.38
2022-12-10T21:31:48.346Z,92818.94
2022-12-10T21:36:52.017Z,92814.78
2022-12-10T21:42:13.207Z,92854.19
2022-12-10T21:47:18.510Z,92781.59
2022-12-10T21:52:22.349Z,92719.34
2022-12-10T21:57:25.915Z,92553.34
2022-12-10T22:02:31.060Z,92482.81
2022-12-10T22:07:36.321Z,92526.38
2022-12-10T22:12:40.081Z,92599.00
2022-12-10T22:17:45.093Z,92698.59
2022-12-10T22:22:48.994Z,92804.41
2022-12-10T22:27:52.536Z,92522.22
2022-12-10T22:32:57.432Z,92414.34
2022-12-10T22:38:00.976Z,92513.94
2022-12-10T22:43:26.575Z,93217.31
2022-12-10T22:48:29.540Z,93437.28
2022-12-10T22:53:33.067Z,93198.66
2022-12-10T22:58:36.973Z,92968.31
2022-12-10T23:03:42.103Z,92910.22
2022-12-10T23:08:45.778Z,92808.56
2022-12-10T23:13:49.385Z,92675.78
2022-12-10T23:18:54.543Z,92586.56
2022-12-10T23:23:58.272Z,91377.16
2022-12-10T23:29:01.788Z,91018.34
2022-12-10T23:34:06.685Z,91088.84
2022-12-10T23:39:10.218Z,91159.38
2022-12-10T23:44:13.688Z,91350.19
2022-12-10T23:49:18.517Z,91760.88
2022-12-10T23:54:22.061Z,91918.53
2022-12-10T23:59:25.580Z,92082.41
